createdAt,value
2023-10-30T00:00:21.154Z,99615.91
2023-10-30T00:02:47.800Z,99610.81
2023-10-30T00:05:14.368Z,99605.63
2023-10-30T00:07:40.936Z,99613.66
2023-10-30T00:10:07.820Z,99581.00
2023-10-30T00:12:34.383Z,99604.59
2023-10-30T00:15:05.037Z,99607.34
2023-10-30T00:17:31.800Z,99621.28
2023-10-30T00:19:58.504Z,99613.25
2023-10-30T00:22:25.254Z,99606.28
2023-10-30T00:24:52.122Z,99631.88
2023-10-30T00:27:19.002Z,99637.47
2023-10-30T00:29:45.691Z,99631.63
2023-10-30T00:32:12.258Z,99621.13
2023-10-30T00:34:40.287Z,99629.19
2023-10-30T00:37:06.934Z,99645.03
2023-10-30T00:39:33.705Z,99651.81
2023-10-30T00:42:01.188Z,99641.25
2023-10-30T00:44:28.576Z,99643.47
2023-10-30T00:46:55.145Z,99652.28
2023-10-30T00:49:22.008Z,99657.94
2023-10-30T00:51:48.629Z,99652.66
2023-10-30T00:54:15.226Z,99646.31
2023-10-30T00:56:41.978Z,99653.72
2023-10-30T00:59:08.651Z,99639.94
2023-10-30T01:01:35.201Z,99643.34
2023-10-30T01:04:02.024Z,99649.88
2023-10-30T01:06:28.718Z,99646.28
2023-10-30T01:08:55.271Z,99641.44
2023-10-30T01:11:21.804Z,99654.47
2023-10-30T01:13:48.379Z,99651.22
2023-10-30T01:16:14.998Z,99663.69
2023-10-30T01:18:41.767Z,99652.66
2023-10-30T01:21:13.940Z,99636.16
2023-10-30T01:23:40.615Z,99647.56
2023-10-30T01:26:07.213Z,99653.06
2023-10-30T01:28:33.798Z,99663.00
2023-10-30T01:31:00.435Z,99640.34
2023-10-30T01:33:27.084Z,99649.22
2023-10-30T01:35:53.681Z,99647.63
2023-10-30T01:38:20.463Z,99662.84
2023-10-30T01:40:50.768Z,99668.03
2023-10-30T01:43:17.913Z,99655.66
2023-10-30T01:45:44.507Z,99670.78
2023-10-30T01:48:11.567Z,99669.06
2023-10-30T01:50:38.940Z,99662.84
2023-10-30T01:53:05.689Z,99672.16
2023-10-30T01:55:32.317Z,99678.19
2023-10-30T01:57:58.977Z,99688.03
2023-10-30T02:00:25.837Z,99672.16
2023-10-30T02:02:54.008Z,99679.53
2023-10-30T02:05:21.538Z,99675.38
2023-10-30T02:07:48.185Z,99675.59
2023-10-30T02:10:14.898Z,99681.91
2023-10-30T02:12:49.196Z,99683.97
2023-10-30T02:15:15.756Z,99687.03
2023-10-30T02:17:42.430Z,99689.13
2023-10-30T02:20:09.369Z,99684.97
2023-10-30T02:22:35.910Z,99677.31
2023-10-30T02:25:02.507Z,99693.16
2023-10-30T02:27:29.155Z,99681.75
2023-10-30T02:29:55.796Z,99697.50
2023-10-30T02:32:22.813Z,99696.75
2023-10-30T02:34:49.393Z,99697.22
2023-10-30T02:37:15.926Z,99698.19
2023-10-30T02:39:42.852Z,99689.28
2023-10-30T02:42:09.668Z,99704.69
2023-10-30T02:44:36.345Z,99696.34
2023-10-30T02:47:03.124Z,99706.72
2023-10-30T02:49:29.644Z,99711.16
2023-10-30T02:51:56.175Z,99707.59
2023-10-30T02:54:22.762Z,99695.63
2023-10-30T02:56:49.306Z,99715.88
2023-10-30T02:59:15.851Z,99706.91
2023-10-30T03:01:42.954Z,99707.13
2023-10-30T03:04:10.871Z,99692.50
2023-10-30T03:06:37.580Z,99712.41
2023-10-30T03:09:04.807Z,99708.94
2023-10-30T03:11:31.507Z,99705.13
2023-10-30T03:13:58.029Z,99709.56
2023-10-30T03:16:24.581Z,99710.69
2023-10-30T03:18:51.235Z,99708.81
2023-10-30T03:21:17.815Z,99707.03
2023-10-30T03:23:44.350Z,99706.91
2023-10-30T03:26:10.863Z,99708.72
2023-10-30T03:28:37.407Z,99705.41
2023-10-30T03:31:07.987Z,99705.22
2023-10-30T03:33:34.596Z,99705.31
2023-10-30T03:36:03.190Z,99693.81
2023-10-30T03:38:29.868Z,99700.13
2023-10-30T03:40:56.486Z,99709.09
2023-10-30T03:43:22.982Z,99703.91
2023-10-30T03:45:49.613Z,99711.00
2023-10-30T03:48:16.354Z,99712.69
2023-10-30T03:50:42.938Z,99711.00
2023-10-30T03:53:09.496Z,99718.19
2023-10-30T03:55:36.369Z,99701.47
2023-10-30T03:58:04.527Z,99704.97
2023-10-30T04:00:31.144Z,99726.94
2023-10-30T04:02:57.911Z,99711.09
2023-10-30T04:05:24.532Z,99711.28
2023-10-30T04:07:51.090Z,99724.00
2023-10-30T04:10:17.680Z,99727.59
2023-10-30T04:12:44.378Z,99723.81
2023-10-30T04:15:11.209Z,99715.91
2023-10-30T04:17:38.042Z,99720.44
2023-10-30T04:20:04.913Z,99719.56
2023-10-30T04:22:31.496Z,99736.19
2023-10-30T04:24:58.039Z,99701.94
2023-10-30T04:27:24.726Z,99703.38
2023-10-30T04:29:51.247Z,99701.38
2023-10-30T04:32:20.362Z,99710.31
2023-10-30T04:34:47.304Z,99703.38
2023-10-30T04:37:14.848Z,99709.69
2023-10-30T04:39:41.577Z,99715.06
2023-10-30T04:42:09.181Z,99720.97
2023-10-30T04:44:35.733Z,99719.22
2023-10-30T04:47:02.476Z,99699.50
2023-10-30T04:49:29.057Z,99697.50
2023-10-30T04:51:55.576Z,99698.34
2023-10-30T04:54:22.171Z,99731.72
2023-10-30T04:56:48.770Z,99722.66
2023-10-30T04:59:15.328Z,99705.78
2023-10-30T05:01:41.929Z,99721.63
2023-10-30T05:04:08.632Z,99710.22
2023-10-30T05:06:35.268Z,99707.69
2023-10-30T05:09:01.924Z,99720.81
2023-10-30T05:11:28.451Z,99716.34
2023-10-30T05:13:54.997Z,99704.09
2023-10-30T05:16:21.993Z,99708.63
2023-10-30T05:18:48.607Z,99712.09
2023-10-30T05:21:15.670Z,99682.31
2023-10-30T05:23:42.374Z,99708.53
2023-10-30T05:26:08.905Z,99710.03
2023-10-30T05:28:35.683Z,99697.88
2023-10-30T05:31:06.415Z,99696.34
2023-10-30T05:33:33.277Z,99704.28
2023-10-30T05:35:59.894Z,99700.50
2023-10-30T05:38:26.507Z,99702.41
2023-10-30T05:40:53.112Z,99698.25
2023-10-30T05:43:19.663Z,99694.00
2023-10-30T05:45:48.159Z,99694.00
2023-10-30T05:48:15.471Z,99693.06
2023-10-30T05:50:42.033Z,99696.75
2023-10-30T05:53:08.938Z,99704.97
2023-10-30T05:55:35.607Z,99720.88
2023-10-30T05:58:02.257Z,99740.03
2023-10-30T06:00:30.570Z,99719.00
2023-10-30T06:02:57.126Z,99704.97
2023-10-30T06:05:23.782Z,99711.94
2023-10-30T06:07:50.420Z,99719.66
2023-10-30T06:10:20.520Z,99715.97
2023-10-30T06:12:48.588Z,99717.38
2023-10-30T06:15:15.351Z,99725.41
2023-10-30T06:17:42.275Z,99728.91
2023-10-30T06:20:09.920Z,99745.72
2023-10-30T06:22:36.480Z,99728.81
2023-10-30T06:25:03.160Z,99723.53
2023-10-30T06:27:29.801Z,99734.84
2023-10-30T06:29:56.612Z,99735.88
2023-10-30T06:32:23.404Z,99734.19
2023-10-30T06:34:50.146Z,99725.41
2023-10-30T06:37:17.416Z,99718.53
2023-10-30T06:39:44.152Z,99721.63
2023-10-30T06:42:10.734Z,99733.16
2023-10-30T06:44:37.407Z,99726.09
2023-10-30T06:47:04.099Z,99734.66
2023-10-30T06:49:30.772Z,99746.00
2023-10-30T06:51:57.313Z,99740.81
2023-10-30T06:54:23.999Z,99747.56
2023-10-30T06:56:50.597Z,99751.56
2023-10-30T06:59:17.533Z,99756.84
2023-10-30T07:01:45.174Z,99726.31
2023-10-30T07:04:12.540Z,99757.75
2023-10-30T07:06:40.318Z,99741.59
2023-10-30T07:09:07.701Z,99730.97
2023-10-30T07:11:35.340Z,99769.28
2023-10-30T07:14:05.377Z,99775.91
2023-10-30T07:16:32.676Z,99777.47
2023-10-30T07:19:00.013Z,99758.75
2023-10-30T07:21:27.443Z,99772.75
2023-10-30T07:23:54.399Z,99771.34
2023-10-30T07:26:22.345Z,99769.78
2023-10-30T07:28:53.181Z,99764.88
2023-10-30T07:31:20.107Z,99785.06
2023-10-30T07:33:47.268Z,99794.66
2023-10-30T07:36:14.013Z,99803.13
2023-10-30T07:38:41.139Z,99801.09
2023-10-30T07:41:09.027Z,99801.44
2023-10-30T07:43:35.723Z,99807.31
2023-10-30T07:46:02.421Z,99806.19
2023-10-30T07:48:29.187Z,99802.50
2023-10-30T07:50:55.830Z,99796.22
2023-10-30T07:53:22.380Z,99802.75
2023-10-30T07:55:49.052Z,99794.91
2023-10-30T07:58:16.066Z,99792.81
2023-10-30T08:00:51.851Z,99793.38
2023-10-30T08:03:24.867Z,99779.53
2023-10-30T08:05:51.598Z,99773.72
2023-10-30T08:08:18.230Z,99759.50
2023-10-30T08:10:46.769Z,99763.31
2023-10-30T08:13:13.438Z,99770.31
2023-10-30T08:15:40.150Z,99777.31
2023-10-30T08:18:06.830Z,99777.22
2023-10-30T08:20:33.547Z,99781.47
2023-10-30T08:23:00.790Z,99775.50
2023-10-30T08:25:28.222Z,99787.91
2023-10-30T08:27:55.622Z,99785.38
2023-10-30T08:30:22.904Z,99783.75
2023-10-30T08:32:49.587Z,99790.66
2023-10-30T08:35:16.279Z,99778.03
2023-10-30T08:37:42.949Z,99761.75
2023-10-30T08:40:10.251Z,99803.72
2023-10-30T08:42:36.946Z,99798.09
2023-10-30T08:45:04.708Z,99805.75
2023-10-30T08:47:31.325Z,99789.53
2023-10-30T08:49:57.969Z,99803.28
2023-10-30T08:52:24.661Z,99818.13
2023-10-30T08:54:51.399Z,99824.69
2023-10-30T08:57:20.634Z,99825.34
2023-10-30T08:59:47.721Z,99816.47
2023-10-30T09:02:23.294Z,99819.19
2023-10-30T09:04:51.931Z,99827.78
2023-10-30T09:07:18.618Z,99826.94
2023-10-30T09:09:45.302Z,99819.94
2023-10-30T09:12:11.959Z,99810.94
2023-10-30T09:14:38.523Z,99806.16
2023-10-30T09:17:05.230Z,99818.91
2023-10-30T09:19:31.779Z,99825.97
2023-10-30T09:21:58.433Z,99834.38
2023-10-30T09:24:25.072Z,99818.25
2023-10-30T09:26:51.694Z,99826.09
2023-10-30T09:29:18.329Z,99821.13
2023-10-30T09:31:45.437Z,99826.53
2023-10-30T09:34:12.506Z,99813.06
2023-10-30T09:36:39.314Z,99808.69
2023-10-30T09:39:05.986Z,99831.59
2023-10-30T09:41:38.967Z,99819.94
2023-10-30T09:44:07.473Z,99821.88
2023-10-30T09:46:34.149Z,99797.81
2023-10-30T09:49:01.161Z,99809.34
2023-10-30T09:51:28.001Z,99801.06
2023-10-30T09:53:55.466Z,99804.69
2023-10-30T09:56:22.603Z,99796.75
2023-10-30T09:58:49.541Z,99792.91
2023-10-30T10:01:16.310Z,99779.97
2023-10-30T10:03:43.155Z,99782.41
2023-10-30T10:06:09.804Z,99790.56
2023-10-30T10:08:36.850Z,99803.59
2023-10-30T10:11:07.278Z,99793.97
2023-10-30T10:13:35.019Z,99785.16
2023-10-30T10:16:02.734Z,99805.41
2023-10-30T10:18:34.361Z,99798.50
2023-10-30T10:21:09.554Z,99802.13
2023-10-30T10:23:38.357Z,99806.44
2023-10-30T10:26:07.927Z,99789.25
2023-10-30T10:28:34.751Z,99780.88
2023-10-30T10:31:01.408Z,99765.09
2023-10-30T10:33:29.005Z,99788.91
2023-10-30T10:35:56.619Z,99785.47
2023-10-30T10:38:23.567Z,99794.16
2023-10-30T10:40:51.546Z,99797.38
2023-10-30T10:43:20.251Z,99806.34
2023-10-30T10:45:48.186Z,99798.88
2023-10-30T10:48:15.323Z,99799.94
2023-10-30T10:50:42.566Z,99784.94
2023-10-30T10:53:10.242Z,99803.63
2023-10-30T10:55:43.668Z,99807.63
2023-10-30T10:58:18.780Z,99794.63
2023-10-30T11:00:53.046Z,99794.63
2023-10-30T11:03:22.379Z,99787.72
2023-10-30T11:05:53.411Z,99792.16
2023-10-30T11:08:32.149Z,99790.81
2023-10-30T11:11:20.088Z,99790.69
2023-10-30T11:13:58.764Z,99789.78
2023-10-30T11:16:28.066Z,99789.13
2023-10-30T11:18:59.084Z,99777.16
2023-10-30T11:21:29.672Z,99772.34
2023-10-30T11:23:59.899Z,99778.59
2023-10-30T11:26:31.355Z,99774.84
2023-10-30T11:29:01.494Z,99777.38
2023-10-30T11:31:32.953Z,99774.31
2023-10-30T11:34:13.753Z,99764.69
2023-10-30T11:36:40.710Z,99760.34
2023-10-30T11:39:07.202Z,99764.63
2023-10-30T11:41:37.207Z,99752.97
2023-10-30T11:44:14.309Z,99751.53
2023-10-30T11:46:47.959Z,99754.53
2023-10-30T11:49:15.803Z,99758.88
2023-10-30T11:51:43.815Z,99753.06
2023-10-30T11:54:10.544Z,99743.19
2023-10-30T11:56:38.392Z,99738.88
2023-10-30T11:59:05.338Z,99734.44
2023-10-30T12:01:34.226Z,99742.09
2023-10-30T12:04:05.191Z,99729.22
2023-10-30T12:06:33.363Z,99721.38
2023-10-30T12:08:59.975Z,99720.41
2023-10-30T12:11:27.567Z,99716.41
2023-10-30T12:13:55.901Z,99720.25
2023-10-30T12:16:22.351Z,99718.00
2023-10-30T12:18:49.788Z,99711.75
2023-10-30T12:21:17.132Z,99713.19
2023-10-30T12:23:50.563Z,99719.53
2023-10-30T12:26:17.112Z,99721.84
2023-10-30T12:28:44.859Z,99721.31
2023-10-30T12:31:17.488Z,99705.84
2023-10-30T12:33:44.187Z,99701.91
2023-10-30T12:36:10.760Z,99698.53
2023-10-30T12:38:37.416Z,99697.19
2023-10-30T12:41:07.687Z,99696.34
2023-10-30T12:43:38.770Z,99690.84
2023-10-30T12:46:06.876Z,99688.31
2023-10-30T12:48:34.497Z,99669.00
2023-10-30T12:51:01.321Z,99672.75
2023-10-30T12:53:28.067Z,99673.72
2023-10-30T12:55:54.642Z,99667.91
2023-10-30T12:58:21.665Z,99663.19
2023-10-30T13:01:11.022Z,99667.16
2023-10-30T13:03:34.937Z,99663.41
2023-10-30T13:06:01.594Z,99658.84
2023-10-30T13:08:28.158Z,99649.31
2023-10-30T13:10:54.670Z,99643.06
2023-10-30T13:13:22.732Z,99648.59
2023-10-30T13:15:49.335Z,99647.13
2023-10-30T13:18:15.960Z,99646.63
2023-10-30T13:20:42.786Z,99649.66
2023-10-30T13:23:09.333Z,99647.34
2023-10-30T13:25:35.905Z,99648.94
2023-10-30T13:28:02.525Z,99636.53
2023-10-30T13:30:29.170Z,99642.28
2023-10-30T13:32:58.443Z,99641.81
2023-10-30T13:35:25.969Z,99637.22
2023-10-30T13:37:52.531Z,99633.25
2023-10-30T13:40:19.195Z,99632.25
2023-10-30T13:42:45.731Z,99626.94
2023-10-30T13:45:12.372Z,99626.31
2023-10-30T13:47:38.971Z,99624.66
2023-10-30T13:50:06.125Z,99625.72
2023-10-30T13:52:32.758Z,99621.00
2023-10-30T13:54:59.351Z,99616.91
2023-10-30T13:57:25.960Z,99615.94
2023-10-30T13:59:52.609Z,99613.28
2023-10-30T14:02:19.186Z,99610.66
2023-10-30T14:04:46.429Z,99617.78
2023-10-30T14:07:13.641Z,99611.00
2023-10-30T14:09:40.372Z,99618.59
2023-10-30T14:12:08.269Z,99617.28
2023-10-30T14:14:34.821Z,99614.13
2023-10-30T14:17:01.387Z,99604.47
2023-10-30T14:19:28.162Z,99600.00
2023-10-30T14:21:54.793Z,99597.63
2023-10-30T14:24:21.319Z,99593.84
2023-10-30T14:26:47.841Z,99590.59
2023-10-30T14:29:15.341Z,99598.06
2023-10-30T14:31:41.927Z,99591.31
2023-10-30T14:34:08.556Z,99589.91
2023-10-30T14:36:35.274Z,99599.91
2023-10-30T14:39:01.850Z,99586.28
2023-10-30T14:41:29.619Z,99587.03
2023-10-30T14:43:56.169Z,99574.59
2023-10-30T14:46:23.361Z,99573.66
2023-10-30T14:48:50.114Z,99568.47
2023-10-30T14:51:18.189Z,99559.75
2023-10-30T14:53:46.743Z,99560.50
2023-10-30T14:56:13.257Z,99555.72
2023-10-30T14:58:39.838Z,99558.25
2023-10-30T15:01:06.663Z,99546.66
2023-10-30T15:03:33.313Z,99550.28
2023-10-30T15:06:00.391Z,99545.19
2023-10-30T15:08:27.024Z,99541.59
2023-10-30T15:10:53.804Z,99546.06
2023-10-30T15:13:20.368Z,99543.63
2023-10-30T15:15:47.108Z,99536.75
2023-10-30T15:18:13.858Z,99543.13
2023-10-30T15:20:40.459Z,99533.00
2023-10-30T15:23:07.254Z,99534.50
2023-10-30T15:25:33.864Z,99530.41
2023-10-30T15:28:00.469Z,99535.47
2023-10-30T15:30:27.230Z,99540.50
2023-10-30T15:32:53.897Z,99534.13
2023-10-30T15:35:20.942Z,99534.72
2023-10-30T15:37:47.535Z,99538.25
2023-10-30T15:40:14.321Z,99542.78
2023-10-30T15:42:41.052Z,99535.06
2023-10-30T15:45:09.146Z,99537.84
2023-10-30T15:47:36.324Z,99526.53
2023-10-30T15:50:03.079Z,99526.59
2023-10-30T15:57:30.423Z,99506.97
2023-10-30T15:59:57.042Z,99503.63
2023-10-30T16:02:25.144Z,99494.91
2023-10-30T16:07:21.862Z,99485.50
2023-10-30T16:09:49.362Z,99485.75
2023-10-30T16:12:16.307Z,99489.38
2023-10-30T16:14:42.954Z,99490.44
2023-10-30T16:19:42.119Z,99502.94
2023-10-30T16:22:08.853Z,99495.97
2023-10-30T16:24:35.457Z,99488.13
2023-10-30T16:27:02.044Z,99490.75
2023-10-30T16:29:28.684Z,99488.22
2023-10-30T16:31:55.228Z,99484.97
2023-10-30T16:34:21.872Z,99475.44
2023-10-30T16:36:48.694Z,99487.97
2023-10-30T16:39:15.303Z,99481.94
2023-10-30T16:41:43.693Z,99469.63
2023-10-30T16:44:10.334Z,99461.81
2023-10-30T16:46:36.928Z,99472.53
2023-10-30T16:49:03.516Z,99475.16
2023-10-30T16:51:30.058Z,99477.09
2023-10-30T16:53:56.644Z,99487.81
2023-10-30T16:56:24.152Z,99487.94
2023-10-30T16:58:50.790Z,99483.47
2023-10-30T17:01:17.419Z,99485.47
2023-10-30T17:03:43.951Z,99487.41
2023-10-30T17:06:13.236Z,99489.22
2023-10-30T17:08:39.833Z,99503.44
2023-10-30T17:11:06.389Z,99495.59
2023-10-30T17:13:32.954Z,99495.81
2023-10-30T17:15:59.545Z,99499.53
2023-10-30T17:18:29.662Z,99503.25
2023-10-30T17:20:56.291Z,99514.91
2023-10-30T17:23:22.858Z,99524.78
2023-10-30T17:25:49.517Z,99516.44
2023-10-30T17:28:16.533Z,99496.53
2023-10-30T17:30:43.089Z,99495.94
2023-10-30T17:33:10.421Z,99503.34
2023-10-30T17:35:36.967Z,99496.69
2023-10-30T17:38:03.729Z,99487.28
2023-10-30T17:40:30.285Z,99490.97
2023-10-30T17:42:56.858Z,99499.69
2023-10-30T17:45:23.474Z,99498.53
2023-10-30T17:47:50.123Z,99498.75
2023-10-30T17:50:16.996Z,99503.44
2023-10-30T17:52:43.665Z,99511.38
2023-10-30T17:55:10.475Z,99507.97
2023-10-30T17:57:37.043Z,99503.00
2023-10-30T18:00:05.012Z,99502.06
2023-10-30T18:02:32.529Z,99504.06
2023-10-30T18:04:59.612Z,99500.59
2023-10-30T18:07:26.226Z,99493.69
2023-10-30T18:09:52.781Z,99485.16
2023-10-30T18:12:19.778Z,99491.50
2023-10-30T18:14:46.710Z,99485.34
2023-10-30T18:17:13.625Z,99489.06
2023-10-30T18:19:40.269Z,99485.78
2023-10-30T18:22:06.861Z,99487.84
2023-10-30T18:24:33.440Z,99482.56
2023-10-30T18:26:59.994Z,99476.53
2023-10-30T18:29:28.606Z,99477.72
2023-10-30T18:31:56.172Z,99475.78
2023-10-30T18:34:22.894Z,99482.88
2023-10-30T18:36:49.600Z,99476.88
2023-10-30T18:39:16.741Z,99469.16
2023-10-30T18:41:43.637Z,99468.50
2023-10-30T18:44:11.890Z,99465.22
2023-10-30T18:46:38.522Z,99465.31
2023-10-30T18:49:05.278Z,99461.84
2023-10-30T18:51:34.403Z,99469.88
2023-10-30T18:54:02.055Z,99470.94
2023-10-30T18:56:28.810Z,99474.63
2023-10-30T18:58:55.426Z,99472.75
2023-10-30T19:01:22.308Z,99463.94
2023-10-30T19:03:49.788Z,99454.47
2023-10-30T19:06:16.368Z,99461.63
2023-10-30T19:08:42.975Z,99451.28
2023-10-30T19:11:09.619Z,99463.66
2023-10-30T19:13:36.346Z,99462.91
2023-10-30T19:16:03.101Z,99468.41
2023-10-30T19:18:29.812Z,99466.81
2023-10-30T19:20:58.414Z,99479.28
2023-10-30T19:23:25.220Z,99479.50
2023-10-30T19:25:51.925Z,99474.50
2023-10-30T19:28:18.499Z,99469.44
2023-10-30T19:30:45.073Z,99465.41
2023-10-30T19:33:11.672Z,99465.63
2023-10-30T19:35:38.213Z,99473.44
2023-10-30T19:38:04.839Z,99472.06
2023-10-30T19:40:32.048Z,99471.31
2023-10-30T19:42:58.617Z,99474.16
2023-10-30T19:45:25.599Z,99462.09
2023-10-30T19:47:53.197Z,99471.28
2023-10-30T19:50:19.993Z,99476.66
2023-10-30T19:52:47.765Z,99467.88
2023-10-30T19:55:15.190Z,99475.09
2023-10-30T19:57:43.806Z,99474.97
2023-10-30T20:00:11.689Z,99475.81
2023-10-30T20:02:38.367Z,99484.69
2023-10-30T20:05:05.264Z,99489.03
2023-10-30T20:07:31.871Z,99485.81
2023-10-30T20:10:09.401Z,99488.41
2023-10-30T20:12:44.195Z,99491.22
2023-10-30T20:15:10.776Z,99490.47
2023-10-30T20:17:37.465Z,99501.97
2023-10-30T20:20:04.384Z,99505.03
2023-10-30T20:22:31.214Z,99512.28
2023-10-30T20:24:57.780Z,99524.66
2023-10-30T20:27:24.947Z,99527.19
2023-10-30T20:29:52.921Z,99520.97
2023-10-30T20:32:19.528Z,99520.00
2023-10-30T20:34:46.082Z,99527.75
2023-10-30T20:37:13.005Z,99522.56
2023-10-30T20:39:39.543Z,99520.78
2023-10-30T20:42:06.310Z,99524.34
2023-10-30T20:44:33.011Z,99513.78
2023-10-30T20:46:59.737Z,99513.69
2023-10-30T20:49:26.320Z,99516.53
2023-10-30T20:51:53.299Z,99501.00
2023-10-30T20:54:19.869Z,99496.03
2023-10-30T20:56:46.931Z,99501.38
2023-10-30T20:59:13.513Z,99507.53
2023-10-30T21:01:40.128Z,99496.09
2023-10-30T21:04:06.791Z,99500.53
2023-10-30T21:06:33.417Z,99499.59
2023-10-30T21:09:01.291Z,99509.28
2023-10-30T21:11:27.980Z,99504.00
2023-10-30T21:13:55.775Z,99504.00
2023-10-30T21:16:22.413Z,99511.00
2023-10-30T21:18:49.052Z,99510.78
2023-10-30T21:21:15.699Z,99520.41
2023-10-30T21:23:42.250Z,99515.91
2023-10-30T21:26:08.795Z,99522.03
2023-10-30T21:28:35.368Z,99518.44
2023-10-30T21:31:02.257Z,99515.69
2023-10-30T21:33:28.876Z,99515.69
2023-10-30T21:35:55.464Z,99513.88
2023-10-30T21:38:23.452Z,99513.78
2023-10-30T21:40:50.209Z,99508.50
2023-10-30T21:43:16.872Z,99521.72
2023-10-30T21:45:43.529Z,99524.44
2023-10-30T21:48:10.199Z,99523.72
2023-10-30T21:50:36.762Z,99519.06
2023-10-30T21:53:03.579Z,99523.31
2023-10-30T21:55:30.252Z,99523.31
2023-10-30T21:57:57.078Z,99527.75
2023-10-30T22:00:23.723Z,99521.59
2023-10-30T22:02:54.950Z,99530.56
2023-10-30T22:05:22.882Z,99539.34
2023-10-30T22:07:50.930Z,99535.84
2023-10-30T22:10:21.379Z,99534.91
2023-10-30T22:12:47.973Z,99526.06
2023-10-30T22:15:14.849Z,99533.22
2023-10-30T22:17:41.457Z,99538.69
2023-10-30T22:20:16.725Z,99531.81
2023-10-30T22:22:43.313Z,99539.72
2023-10-30T22:25:11.167Z,99541.44
2023-10-30T22:27:39.958Z,99550.28
2023-10-30T22:30:09.876Z,99543.44
2023-10-30T22:32:38.528Z,99543.44
2023-10-30T22:35:05.482Z,99545.97
2023-10-30T22:37:32.080Z,99543.34
2023-10-30T22:39:58.596Z,99547.84
2023-10-30T22:42:25.120Z,99546.09
2023-10-30T22:44:51.758Z,99542.47
2023-10-30T22:47:18.313Z,99544.19
2023-10-30T22:49:44.912Z,99543.25
2023-10-30T22:52:11.463Z,99552.75
2023-10-30T22:54:37.995Z,99548.41
2023-10-30T22:57:04.574Z,99553.81
2023-10-30T22:59:31.215Z,99550.28
2023-10-30T23:01:57.821Z,99550.41
2023-10-30T23:04:24.351Z,99547.59
2023-10-30T23:06:50.906Z,99554.53
2023-10-30T23:09:17.493Z,99556.44
2023-10-30T23:11:44.118Z,99560.97
2023-10-30T23:14:10.678Z,99553.81
2023-10-30T23:16:37.210Z,99560.13
2023-10-30T23:19:03.892Z,99558.41
2023-10-30T23:21:30.446Z,99562.97
2023-10-30T23:23:56.980Z,99555.97
2023-10-30T23:26:23.540Z,99560.31
2023-10-30T23:28:50.171Z,99558.50
2023-10-30T23:31:16.811Z,99549.97
2023-10-30T23:33:44.291Z,99558.16
2023-10-30T23:36:11.024Z,99553.75
2023-10-30T23:38:37.593Z,99551.84
2023-10-30T23:41:04.271Z,99557.88
2023-10-30T23:43:30.885Z,99556.81
2023-10-30T23:45:57.426Z,99555.88
2023-10-30T23:48:24.051Z,99554.94
2023-10-30T23:50:50.580Z,99556.66
2023-10-30T23:53:17.123Z,99553.81
2023-10-30T23:55:43.717Z,99563.31
2023-10-30T23:58:10.337Z,99566.91
